sensor_id;sensor_type;location;lat;lon;timestamp;P1;durP1;ratioP1;P2;durP2;ratioP2
22449;SDS011;11392;57.390;-2.468;2023-06-22T00:00:12;4.40;;;2.95;;
22449;SDS011;11392;57.390;-2.468;2023-06-22T00:02:40;4.53;;;3.22;;
22449;SDS011;11392;57.390;-2.468;2023-06-22T00:05:07;3.60;;;3.00;;
22449;SDS011;11392;57.390;-2.468;2023-06-22T00:07:34;6.03;;;3.30;;
22449;SDS011;11392;57.390;-2.468;2023-06-22T00:10:01;3.10;;;2.80;;
22449;SDS011;11392;57.390;-2.468;2023-06-22T00:12:28;3.55;;;2.95;;
22449;SDS011;11392;57.390;-2.468;2023-06-22T00:14:55;5.10;;;3.22;;
22449;SDS011;11392;57.390;-2.468;2023-06-22T00:17:22;3.38;;;3.08;;
22449;SDS011;11392;57.390;-2.468;2023-06-22T00:19:49;4.32;;;3.10;;
22449;SDS011;11392;57.390;-2.468;2023-06-22T00:22:20;4.07;;;3.38;;
22449;SDS011;11392;57.390;-2.468;2023-06-22T00:24:55;6.05;;;3.55;;
22449;SDS011;11392;57.390;-2.468;2023-06-22T00:27:22;4.03;;;3.25;;
22449;SDS011;11392;57.390;-2.468;2023-06-22T00:29:49;3.60;;;3.30;;
22449;SDS011;11392;57.390;-2.468;2023-06-22T00:32:16;3.22;;;2.92;;
22449;SDS011;11392;57.390;-2.468;2023-06-22T00:34:45;3.70;;;3.35;;
22449;SDS011;11392;57.390;-2.468;2023-06-22T00:37:12;4.72;;;2.97;;
22449;SDS011;11392;57.390;-2.468;2023-06-22T00:39:39;4.63;;;3.10;;
22449;SDS011;11392;57.390;-2.468;2023-06-22T00:42:06;4.85;;;3.83;;
22449;SDS011;11392;57.390;-2.468;2023-06-22T00:44:33;3.70;;;3.40;;
22449;SDS011;11392;57.390;-2.468;2023-06-22T00:47:00;4.63;;;3.13;;
22449;SDS011;11392;57.390;-2.468;2023-06-22T00:49:27;3.47;;;3.17;;
22449;SDS011;11392;57.390;-2.468;2023-06-22T00:51:55;4.50;;;3.03;;
22449;SDS011;11392;57.390;-2.468;2023-06-22T00:54:24;3.53;;;3.22;;
22449;SDS011;11392;57.390;-2.468;2023-06-22T00:56:52;5.03;;;3.00;;
22449;SDS011;11392;57.390;-2.468;2023-06-22T00:59:23;3.60;;;3.28;;
22449;SDS011;11392;57.390;-2.468;2023-06-22T01:01:50;4.22;;;2.92;;
22449;SDS011;11392;57.390;-2.468;2023-06-22T01:04:17;3.55;;;3.17;;
22449;SDS011;11392;57.390;-2.468;2023-06-22T01:06:45;4.47;;;3.00;;
22449;SDS011;11392;57.390;-2.468;2023-06-22T01:09:27;4.05;;;3.15;;
22449;SDS011;11392;57.390;-2.468;2023-06-22T01:12:00;3.75;;;3.45;;
22449;SDS011;11392;57.390;-2.468;2023-06-22T01:14:34;3.60;;;3.25;;
22449;SDS011;11392;57.390;-2.468;2023-06-22T01:17:10;2.78;;;2.58;;
22449;SDS011;11392;57.390;-2.468;2023-06-22T01:19:46;3.30;;;3.00;;
22449;SDS011;11392;57.390;-2.468;2023-06-22T01:22:28;3.08;;;2.67;;
22449;SDS011;11392;57.390;-2.468;2023-06-22T01:25:09;3.42;;;2.53;;
22449;SDS011;11392;57.390;-2.468;2023-06-22T01:30:49;4.97;;;3.35;;
22449;SDS011;11392;57.390;-2.468;2023-06-22T01:33:27;3.38;;;3.10;;
22449;SDS011;11392;57.390;-2.468;2023-06-22T01:35:54;4.43;;;3.38;;
22449;SDS011;11392;57.390;-2.468;2023-06-22T01:38:21;4.47;;;3.17;;
22449;SDS011;11392;57.390;-2.468;2023-06-22T01:40:48;3.70;;;3.40;;
22449;SDS011;11392;57.390;-2.468;2023-06-22T01:43:17;3.50;;;3.17;;
22449;SDS011;11392;57.390;-2.468;2023-06-22T01:45:45;3.38;;;3.08;;
22449;SDS011;11392;57.390;-2.468;2023-06-22T01:48:13;3.60;;;3.00;;
22449;SDS011;11392;57.390;-2.468;2023-06-22T01:50:40;4.32;;;3.80;;
22449;SDS011;11392;57.390;-2.468;2023-06-22T01:53:07;3.95;;;3.50;;
22449;SDS011;11392;57.390;-2.468;2023-06-22T01:55:34;5.55;;;2.97;;
22449;SDS011;11392;57.390;-2.468;2023-06-22T01:58:01;4.43;;;3.47;;
22449;SDS011;11392;57.390;-2.468;2023-06-22T02:00:28;4.38;;;3.22;;
22449;SDS011;11392;57.390;-2.468;2023-06-22T02:03:01;3.92;;;3.55;;
22449;SDS011;11392;57.390;-2.468;2023-06-22T02:05:36;5.03;;;3.08;;
22449;SDS011;11392;57.390;-2.468;2023-06-22T02:08:30;3.30;;;3.00;;
22449;SDS011;11392;57.390;-2.468;2023-06-22T02:11:09;6.20;;;3.15;;
22449;SDS011;11392;57.390;-2.468;2023-06-22T02:13:39;4.85;;;3.53;;
22449;SDS011;11392;57.390;-2.468;2023-06-22T02:16:10;3.15;;;2.85;;
22449;SDS011;11392;57.390;-2.468;2023-06-22T02:18:38;4.28;;;3.13;;
22449;SDS011;11392;57.390;-2.468;2023-06-22T02:21:06;4.68;;;3.17;;
22449;SDS011;11392;57.390;-2.468;2023-06-22T02:23:33;3.55;;;2.90;;
22449;SDS011;11392;57.390;-2.468;2023-06-22T02:26:02;3.67;;;3.38;;
22449;SDS011;11392;57.390;-2.468;2023-06-22T02:28:30;3.92;;;3.35;;
22449;SDS011;11392;57.390;-2.468;2023-06-22T02:30:57;3.55;;;3.15;;
22449;SDS011;11392;57.390;-2.468;2023-06-22T02:33:24;3.50;;;3.20;;
22449;SDS011;11392;57.390;-2.468;2023-06-22T02:35:51;3.78;;;3.28;;
22449;SDS011;11392;57.390;-2.468;2023-06-22T02:38:18;3.50;;;3.20;;
22449;SDS011;11392;57.390;-2.468;2023-06-22T02:40:46;6.70;;;3.50;;
22449;SDS011;11392;57.390;-2.468;2023-06-22T02:43:13;5.53;;;3.50;;
22449;SDS011;11392;57.390;-2.468;2023-06-22T02:45:40;4.10;;;3.38;;
22449;SDS011;11392;57.390;-2.468;2023-06-22T02:48:07;4.53;;;3.47;;
22449;SDS011;11392;57.390;-2.468;2023-06-22T02:50:34;4.82;;;3.00;;
22449;SDS011;11392;57.390;-2.468;2023-06-22T02:53:01;4.28;;;3.35;;
22449;SDS011;11392;57.390;-2.468;2023-06-22T02:55:29;3.30;;;3.00;;
22449;SDS011;11392;57.390;-2.468;2023-06-22T02:57:57;5.57;;;3.53;;
22449;SDS011;11392;57.390;-2.468;2023-06-22T03:00:26;6.07;;;4.05;;
22449;SDS011;11392;57.390;-2.468;2023-06-22T03:02:57;5.63;;;3.50;;
22449;SDS011;11392;57.390;-2.468;2023-06-22T03:05:24;4.28;;;3.50;;
22449;SDS011;11392;57.390;-2.468;2023-06-22T03:07:52;5.25;;;3.35;;
22449;SDS011;11392;57.390;-2.468;2023-06-22T03:10:20;5.32;;;3.50;;
22449;SDS011;11392;57.390;-2.468;2023-06-22T03:12:47;6.45;;;3.97;;
22449;SDS011;11392;57.390;-2.468;2023-06-22T03:15:13;6.43;;;3.60;;
22449;SDS011;11392;57.390;-2.468;2023-06-22T03:17:40;5.43;;;3.67;;
22449;SDS011;11392;57.390;-2.468;2023-06-22T03:20:08;6.05;;;3.72;;
22449;SDS011;11392;57.390;-2.468;2023-06-22T03:22:41;7.65;;;4.22;;
22449;SDS011;11392;57.390;-2.468;2023-06-22T03:25:09;4.82;;;3.58;;
22449;SDS011;11392;57.390;-2.468;2023-06-22T03:27:36;4.82;;;4.15;;
22449;SDS011;11392;57.390;-2.468;2023-06-22T03:30:04;4.22;;;3.20;;
22449;SDS011;11392;57.390;-2.468;2023-06-22T03:32:32;4.45;;;3.28;;
22449;SDS011;11392;57.390;-2.468;2023-06-22T03:34:59;5.90;;;3.65;;
22449;SDS011;11392;57.390;-2.468;2023-06-22T03:37:26;3.53;;;3.15;;
22449;SDS011;11392;57.390;-2.468;2023-06-22T03:39:53;4.90;;;4.00;;
22449;SDS011;11392;57.390;-2.468;2023-06-22T03:42:20;5.20;;;3.50;;
22449;SDS011;11392;57.390;-2.468;2023-06-22T03:44:47;5.50;;;3.85;;
22449;SDS011;11392;57.390;-2.468;2023-06-22T03:47:14;4.00;;;3.10;;
22449;SDS011;11392;57.390;-2.468;2023-06-22T03:49:41;4.25;;;3.45;;
22449;SDS011;11392;57.390;-2.468;2023-06-22T03:52:08;4.47;;;3.47;;
22449;SDS011;11392;57.390;-2.468;2023-06-22T03:54:37;4.65;;;3.50;;
22449;SDS011;11392;57.390;-2.468;2023-06-22T03:57:04;5.03;;;3.50;;
22449;SDS011;11392;57.390;-2.468;2023-06-22T03:59:31;6.40;;;3.65;;
22449;SDS011;11392;57.390;-2.468;2023-06-22T04:01:59;5.13;;;3.40;;
22449;SDS011;11392;57.390;-2.468;2023-06-22T04:04:26;4.32;;;3.67;;
22449;SDS011;11392;57.390;-2.468;2023-06-22T04:06:54;4.47;;;3.80;;
22449;SDS011;11392;57.390;-2.468;2023-06-22T04:09:21;4.05;;;3.50;;
22449;SDS011;11392;57.390;-2.468;2023-06-22T04:11:48;4.40;;;3.38;;
22449;SDS011;11392;57.390;-2.468;2023-06-22T04:14:15;4.50;;;3.25;;
22449;SDS011;11392;57.390;-2.468;2023-06-22T04:16:42;3.72;;;3.42;;
22449;SDS011;11392;57.390;-2.468;2023-06-22T04:19:09;3.25;;;2.95;;
22449;SDS011;11392;57.390;-2.468;2023-06-22T04:21:43;3.97;;;3.45;;
22449;SDS011;11392;57.390;-2.468;2023-06-22T04:24:11;3.38;;;3.08;;
22449;SDS011;11392;57.390;-2.468;2023-06-22T04:26:38;4.72;;;3.55;;
22449;SDS011;11392;57.390;-2.468;2023-06-22T04:29:08;5.32;;;4.10;;
22449;SDS011;11392;57.390;-2.468;2023-06-22T04:31:35;7.75;;;5.20;;
22449;SDS011;11392;57.390;-2.468;2023-06-22T04:34:05;5.32;;;3.80;;
22449;SDS011;11392;57.390;-2.468;2023-06-22T04:36:34;5.18;;;3.33;;
22449;SDS011;11392;57.390;-2.468;2023-06-22T04:41:36;5.68;;;3.08;;
22449;SDS011;11392;57.390;-2.468;2023-06-22T04:46:52;3.72;;;3.38;;
22449;SDS011;11392;57.390;-2.468;2023-06-22T04:49:28;4.18;;;3.28;;
22449;SDS011;11392;57.390;-2.468;2023-06-22T04:51:59;3.60;;;3.20;;
22449;SDS011;11392;57.390;-2.468;2023-06-22T04:54:27;3.80;;;2.83;;
22449;SDS011;11392;57.390;-2.468;2023-06-22T04:56:54;4.65;;;2.97;;
22449;SDS011;11392;57.390;-2.468;2023-06-22T04:59:24;6.20;;;3.35;;
22449;SDS011;11392;57.390;-2.468;2023-06-22T05:02:05;4.95;;;2.95;;
22449;SDS011;11392;57.390;-2.468;2023-06-22T05:04:32;3.80;;;2.95;;
22449;SDS011;11392;57.390;-2.468;2023-06-22T05:06:59;4.40;;;3.40;;
22449;SDS011;11392;57.390;-2.468;2023-06-22T05:09:27;4.95;;;3.22;;
22449;SDS011;11392;57.390;-2.468;2023-06-22T05:11:54;4.32;;;2.95;;
22449;SDS011;11392;57.390;-2.468;2023-06-22T05:14:23;3.35;;;2.72;;
22449;SDS011;11392;57.390;-2.468;2023-06-22T05:16:50;3.28;;;2.97;;
22449;SDS011;11392;57.390;-2.468;2023-06-22T05:19:18;4.15;;;3.20;;
22449;SDS011;11392;57.390;-2.468;2023-06-22T05:21:45;5.07;;;3.30;;
22449;SDS011;11392;57.390;-2.468;2023-06-22T05:24:12;4.43;;;3.05;;
22449;SDS011;11392;57.390;-2.468;2023-06-22T05:26:39;5.43;;;3.20;;
22449;SDS011;11392;57.390;-2.468;2023-06-22T05:29:06;3.50;;;3.00;;
22449;SDS011;11392;57.390;-2.468;2023-06-22T05:31:34;3.42;;;2.92;;
22449;SDS011;11392;57.390;-2.468;2023-06-22T05:34:01;4.85;;;3.10;;
22449;SDS011;11392;57.390;-2.468;2023-06-22T05:36:28;6.28;;;3.58;;
22449;SDS011;11392;57.390;-2.468;2023-06-22T05:38:56;5.07;;;3.25;;
22449;SDS011;11392;57.390;-2.468;2023-06-22T05:41:24;7.43;;;3.20;;
22449;SDS011;11392;57.390;-2.468;2023-06-22T05:43:51;3.10;;;2.80;;
22449;SDS011;11392;57.390;-2.468;2023-06-22T05:46:18;3.38;;;2.83;;
22449;SDS011;11392;57.390;-2.468;2023-06-22T05:48:46;5.70;;;3.28;;
22449;SDS011;11392;57.390;-2.468;2023-06-22T05:51:13;5.65;;;3.15;;
22449;SDS011;11392;57.390;-2.468;2023-06-22T05:53:40;3.05;;;2.75;;
22449;SDS011;11392;57.390;-2.468;2023-06-22T05:56:07;4.32;;;2.90;;
22449;SDS011;11392;57.390;-2.468;2023-06-22T05:58:35;4.78;;;2.90;;
22449;SDS011;11392;57.390;-2.468;2023-06-22T06:01:02;8.93;;;2.97;;
22449;SDS011;11392;57.390;-2.468;2023-06-22T06:03:29;3.45;;;3.03;;
22449;SDS011;11392;57.390;-2.468;2023-06-22T06:05:56;5.15;;;2.92;;
22449;SDS011;11392;57.390;-2.468;2023-06-22T06:08:23;3.65;;;2.88;;
22449;SDS011;11392;57.390;-2.468;2023-06-22T06:10:50;4.53;;;2.78;;
22449;SDS011;11392;57.390;-2.468;2023-06-22T06:13:19;4.43;;;3.15;;
22449;SDS011;11392;57.390;-2.468;2023-06-22T06:15:46;3.63;;;3.25;;
22449;SDS011;11392;57.390;-2.468;2023-06-22T06:18:14;4.13;;;3.47;;
22449;SDS011;11392;57.390;-2.468;2023-06-22T06:20:41;3.10;;;2.80;;
22449;SDS011;11392;57.390;-2.468;2023-06-22T06:23:08;5.28;;;3.05;;
22449;SDS011;11392;57.390;-2.468;2023-06-22T06:25:35;3.55;;;2.55;;
22449;SDS011;11392;57.390;-2.468;2023-06-22T06:28:02;3.33;;;2.80;;
22449;SDS011;11392;57.390;-2.468;2023-06-22T06:30:29;3.88;;;3.00;;
22449;SDS011;11392;57.390;-2.468;2023-06-22T06:32:57;4.60;;;3.13;;
22449;SDS011;11392;57.390;-2.468;2023-06-22T06:35:24;4.72;;;3.10;;
22449;SDS011;11392;57.390;-2.468;2023-06-22T06:37:51;3.20;;;2.80;;
22449;SDS011;11392;57.390;-2.468;2023-06-22T06:40:18;4.38;;;2.70;;
22449;SDS011;11392;57.390;-2.468;2023-06-22T06:42:46;3.25;;;3.03;;
22449;SDS011;11392;57.390;-2.468;2023-06-22T06:45:21;5.60;;;3.17;;
22449;SDS011;11392;57.390;-2.468;2023-06-22T06:47:49;3.58;;;2.72;;
22449;SDS011;11392;57.390;-2.468;2023-06-22T06:50:18;3.97;;;3.42;;
22449;SDS011;11392;57.390;-2.468;2023-06-22T06:52:45;4.28;;;2.67;;
22449;SDS011;11392;57.390;-2.468;2023-06-22T06:55:12;3.05;;;2.85;;
22449;SDS011;11392;57.390;-2.468;2023-06-22T06:57:41;5.97;;;3.65;;
22449;SDS011;11392;57.390;-2.468;2023-06-22T07:00:09;5.05;;;3.03;;
22449;SDS011;11392;57.390;-2.468;2023-06-22T07:02:41;5.65;;;2.92;;
22449;SDS011;11392;57.390;-2.468;2023-06-22T07:05:10;4.57;;;2.33;;
22449;SDS011;11392;57.390;-2.468;2023-06-22T07:07:39;2.88;;;2.53;;
22449;SDS011;11392;57.390;-2.468;2023-06-22T07:10:06;7.43;;;3.13;;
22449;SDS011;11392;57.390;-2.468;2023-06-22T07:12:33;2.92;;;2.28;;
22449;SDS011;11392;57.390;-2.468;2023-06-22T07:15:04;3.97;;;3.10;;
22449;SDS011;11392;57.390;-2.468;2023-06-22T07:17:35;2.55;;;2.30;;
22449;SDS011;11392;57.390;-2.468;2023-06-22T07:20:03;5.95;;;2.30;;
22449;SDS011;11392;57.390;-2.468;2023-06-22T07:22:43;2.28;;;1.85;;
22449;SDS011;11392;57.390;-2.468;2023-06-22T07:25:13;4.07;;;2.55;;
22449;SDS011;11392;57.390;-2.468;2023-06-22T07:27:57;4.68;;;2.92;;
22449;SDS011;11392;57.390;-2.468;2023-06-22T07:30:25;2.50;;;2.10;;
22449;SDS011;11392;57.390;-2.468;2023-06-22T07:32:54;3.53;;;2.33;;
22449;SDS011;11392;57.390;-2.468;2023-06-22T07:35:21;2.88;;;2.50;;
22449;SDS011;11392;57.390;-2.468;2023-06-22T07:37:48;3.05;;;2.60;;
22449;SDS011;11392;57.390;-2.468;2023-06-22T07:40:15;2.60;;;2.17;;
22449;SDS011;11392;57.390;-2.468;2023-06-22T07:42:42;2.58;;;2.38;;
22449;SDS011;11392;57.390;-2.468;2023-06-22T07:45:10;3.28;;;2.33;;
22449;SDS011;11392;57.390;-2.468;2023-06-22T07:47:37;4.10;;;2.38;;
22449;SDS011;11392;57.390;-2.468;2023-06-22T07:50:05;3.22;;;2.15;;
22449;SDS011;11392;57.390;-2.468;2023-06-22T07:52:32;3.15;;;2.17;;
22449;SDS011;11392;57.390;-2.468;2023-06-22T07:54:59;3.15;;;1.92;;
22449;SDS011;11392;57.390;-2.468;2023-06-22T07:57:26;4.10;;;1.90;;
22449;SDS011;11392;57.390;-2.468;2023-06-22T07:59:59;4.40;;;2.30;;
22449;SDS011;11392;57.390;-2.468;2023-06-22T08:02:27;3.20;;;2.17;;
22449;SDS011;11392;57.390;-2.468;2023-06-22T08:04:54;4.70;;;2.05;;
22449;SDS011;11392;57.390;-2.468;2023-06-22T08:07:41;2.90;;;2.10;;
22449;SDS011;11392;57.390;-2.468;2023-06-22T08:10:10;5.75;;;2.60;;
22449;SDS011;11392;57.390;-2.468;2023-06-22T08:12:39;2.95;;;2.45;;
22449;SDS011;11392;57.390;-2.468;2023-06-22T08:15:07;4.03;;;1.90;;
22449;SDS011;11392;57.390;-2.468;2023-06-22T08:17:35;2.00;;;1.80;;
22449;SDS011;11392;57.390;-2.468;2023-06-22T08:20:04;2.08;;;1.88;;
22449;SDS011;11392;57.390;-2.468;2023-06-22T08:22:42;2.63;;;1.92;;
22449;SDS011;11392;57.390;-2.468;2023-06-22T08:25:10;3.85;;;2.00;;
22449;SDS011;11392;57.390;-2.468;2023-06-22T08:27:37;3.65;;;1.90;;
22449;SDS011;11392;57.390;-2.468;2023-06-22T08:30:05;3.15;;;2.15;;
22449;SDS011;11392;57.390;-2.468;2023-06-22T08:32:34;2.63;;;1.65;;
22449;SDS011;11392;57.390;-2.468;2023-06-22T08:35:01;3.05;;;1.77;;
22449;SDS011;11392;57.390;-2.468;2023-06-22T08:37:28;3.50;;;1.90;;
22449;SDS011;11392;57.390;-2.468;2023-06-22T08:40:04;3.42;;;1.77;;
22449;SDS011;11392;57.390;-2.468;2023-06-22T08:42:37;3.25;;;1.92;;
22449;SDS011;11392;57.390;-2.468;2023-06-22T08:45:06;2.85;;;1.52;;
22449;SDS011;11392;57.390;-2.468;2023-06-22T08:47:34;2.22;;;1.50;;
22449;SDS011;11392;57.390;-2.468;2023-06-22T08:50:01;1.85;;;1.75;;
22449;SDS011;11392;57.390;-2.468;2023-06-22T08:52:29;3.10;;;1.83;;
22449;SDS011;11392;57.390;-2.468;2023-06-22T08:54:57;2.92;;;2.08;;
22449;SDS011;11392;57.390;-2.468;2023-06-22T08:57:27;2.42;;;1.98;;
22449;SDS011;11392;57.390;-2.468;2023-06-22T08:59:54;2.97;;;1.77;;
22449;SDS011;11392;57.390;-2.468;2023-06-22T09:02:25;2.15;;;1.60;;
22449;SDS011;11392;57.390;-2.468;2023-06-22T09:04:57;5.10;;;2.00;;
22449;SDS011;11392;57.390;-2.468;2023-06-22T09:07:24;2.03;;;1.83;;
22449;SDS011;11392;57.390;-2.468;2023-06-22T09:09:52;4.22;;;1.67;;
22449;SDS011;11392;57.390;-2.468;2023-06-22T09:12:20;2.80;;;1.65;;
22449;SDS011;11392;57.390;-2.468;2023-06-22T09:14:51;1.73;;;1.38;;
22449;SDS011;11392;57.390;-2.468;2023-06-22T09:17:18;2.20;;;1.58;;
22449;SDS011;11392;57.390;-2.468;2023-06-22T09:19:45;2.30;;;1.60;;
22449;SDS011;11392;57.390;-2.468;2023-06-22T09:22:14;2.38;;;1.98;;
22449;SDS011;11392;57.390;-2.468;2023-06-22T09:24:41;3.10;;;1.70;;
22449;SDS011;11392;57.390;-2.468;2023-06-22T09:27:08;3.08;;;1.75;;
22449;SDS011;11392;57.390;-2.468;2023-06-22T09:29:35;3.58;;;1.63;;
22449;SDS011;11392;57.390;-2.468;2023-06-22T09:32:02;2.10;;;1.52;;
22449;SDS011;11392;57.390;-2.468;2023-06-22T09:34:29;1.55;;;1.45;;
22449;SDS011;11392;57.390;-2.468;2023-06-22T09:36:58;1.88;;;1.75;;
22449;SDS011;11392;57.390;-2.468;2023-06-22T09:39:27;2.10;;;1.75;;
22449;SDS011;11392;57.390;-2.468;2023-06-22T09:41:54;1.73;;;1.63;;
22449;SDS011;11392;57.390;-2.468;2023-06-22T09:44:21;1.70;;;1.40;;
22449;SDS011;11392;57.390;-2.468;2023-06-22T09:46:48;2.85;;;1.95;;
22449;SDS011;11392;57.390;-2.468;2023-06-22T09:49:15;2.38;;;1.73;;
22449;SDS011;11392;57.390;-2.468;2023-06-22T09:51:42;3.30;;;1.90;;
22449;SDS011;11392;57.390;-2.468;2023-06-22T09:54:09;2.00;;;1.80;;
22449;SDS011;11392;57.390;-2.468;2023-06-22T09:56:35;1.73;;;1.63;;
22449;SDS011;11392;57.390;-2.468;2023-06-22T09:59:04;2.38;;;1.80;;
22449;SDS011;11392;57.390;-2.468;2023-06-22T10:01:44;2.17;;;1.90;;
22449;SDS011;11392;57.390;-2.468;2023-06-22T10:04:11;2.55;;;1.95;;
22449;SDS011;11392;57.390;-2.468;2023-06-22T10:06:38;1.98;;;1.70;;
22449;SDS011;11392;57.390;-2.468;2023-06-22T10:09:07;3.38;;;1.80;;
22449;SDS011;11392;57.390;-2.468;2023-06-22T10:11:34;1.77;;;1.60;;
22449;SDS011;11392;57.390;-2.468;2023-06-22T10:14:02;3.90;;;2.30;;
22449;SDS011;11392;57.390;-2.468;2023-06-22T10:16:30;1.85;;;1.50;;
22449;SDS011;11392;57.390;-2.468;2023-06-22T10:18:57;1.73;;;1.40;;
22449;SDS011;11392;57.390;-2.468;2023-06-22T10:21:25;2.40;;;1.70;;
22449;SDS011;11392;57.390;-2.468;2023-06-22T10:23:54;1.83;;;1.60;;
22449;SDS011;11392;57.390;-2.468;2023-06-22T10:26:21;2.42;;;1.80;;
22449;SDS011;11392;57.390;-2.468;2023-06-22T10:28:49;2.10;;;1.63;;
22449;SDS011;11392;57.390;-2.468;2023-06-22T10:31:25;1.58;;;1.48;;
22449;SDS011;11392;57.390;-2.468;2023-06-22T10:33:54;2.72;;;2.45;;
22449;SDS011;11392;57.390;-2.468;2023-06-22T10:36:21;2.17;;;1.98;;
22449;SDS011;11392;57.390;-2.468;2023-06-22T10:38:49;1.70;;;1.60;;
22449;SDS011;11392;57.390;-2.468;2023-06-22T10:41:16;2.78;;;1.73;;
22449;SDS011;11392;57.390;-2.468;2023-06-22T10:43:43;2.75;;;1.73;;
22449;SDS011;11392;57.390;-2.468;2023-06-22T10:46:10;2.30;;;1.58;;
22449;SDS011;11392;57.390;-2.468;2023-06-22T10:48:37;1.90;;;1.33;;
22449;SDS011;11392;57.390;-2.468;2023-06-22T10:51:04;4.07;;;1.60;;
22449;SDS011;11392;57.390;-2.468;2023-06-22T10:53:31;1.85;;;1.23;;
22449;SDS011;11392;57.390;-2.468;2023-06-22T10:55:58;1.85;;;1.50;;
22449;SDS011;11392;57.390;-2.468;2023-06-22T10:58:26;1.90;;;1.48;;
22449;SDS011;11392;57.390;-2.468;2023-06-22T11:00:53;2.25;;;1.27;;
22449;SDS011;11392;57.390;-2.468;2023-06-22T11:03:20;2.30;;;2.05;;
22449;SDS011;11392;57.390;-2.468;2023-06-22T11:05:47;3.30;;;1.58;;
22449;SDS011;11392;57.390;-2.468;2023-06-22T11:08:14;3.17;;;1.50;;
22449;SDS011;11392;57.390;-2.468;2023-06-22T11:10:41;2.80;;;1.50;;
22449;SDS011;11392;57.390;-2.468;2023-06-22T11:13:10;2.25;;;1.70;;
22449;SDS011;11392;57.390;-2.468;2023-06-22T11:15:38;2.70;;;1.85;;
22449;SDS011;11392;57.390;-2.468;2023-06-22T11:18:05;2.58;;;1.75;;
22449;SDS011;11392;57.390;-2.468;2023-06-22T11:20:33;2.08;;;1.88;;
22449;SDS011;11392;57.390;-2.468;2023-06-22T11:23:05;3.70;;;2.10;;
22449;SDS011;11392;57.390;-2.468;2023-06-22T11:25:35;1.75;;;1.50;;
22449;SDS011;11392;57.390;-2.468;2023-06-22T11:28:04;1.95;;;1.50;;
22449;SDS011;11392;57.390;-2.468;2023-06-22T11:30:31;1.77;;;1.67;;
22449;SDS011;11392;57.390;-2.468;2023-06-22T11:32:58;1.90;;;1.80;;
22449;SDS011;11392;57.390;-2.468;2023-06-22T11:35:27;1.83;;;1.60;;
22449;SDS011;11392;57.390;-2.468;2023-06-22T11:37:54;2.35;;;1.90;;
22449;SDS011;11392;57.390;-2.468;2023-06-22T11:40:22;1.73;;;1.60;;
22449;SDS011;11392;57.390;-2.468;2023-06-22T11:42:49;1.85;;;1.42;;
22449;SDS011;11392;57.390;-2.468;2023-06-22T11:45:16;2.25;;;1.50;;
22449;SDS011;11392;57.390;-2.468;2023-06-22T11:47:44;2.22;;;1.67;;
22449;SDS011;11392;57.390;-2.468;2023-06-22T11:50:11;2.83;;;2.00;;
22449;SDS011;11392;57.390;-2.468;2023-06-22T11:52:38;1.88;;;1.58;;
22449;SDS011;11392;57.390;-2.468;2023-06-22T11:55:05;2.53;;;2.33;;
22449;SDS011;11392;57.390;-2.468;2023-06-22T11:57:33;2.70;;;1.85;;
22449;SDS011;11392;57.390;-2.468;2023-06-22T12:00:03;4.00;;;1.73;;
22449;SDS011;11392;57.390;-2.468;2023-06-22T12:02:44;1.90;;;1.80;;
22449;SDS011;11392;57.390;-2.468;2023-06-22T12:05:11;2.28;;;1.30;;
22449;SDS011;11392;57.390;-2.468;2023-06-22T12:07:38;3.20;;;1.98;;
22449;SDS011;11392;57.390;-2.468;2023-06-22T12:10:06;1.73;;;1.63;;
22449;SDS011;11392;57.390;-2.468;2023-06-22T12:12:33;1.88;;;1.50;;
22449;SDS011;11392;57.390;-2.468;2023-06-22T12:15:00;2.42;;;2.20;;
22449;SDS011;11392;57.390;-2.468;2023-06-22T12:17:30;1.83;;;1.60;;
22449;SDS011;11392;57.390;-2.468;2023-06-22T12:19:58;1.98;;;1.60;;
22449;SDS011;11392;57.390;-2.468;2023-06-22T12:22:25;2.40;;;1.60;;
22449;SDS011;11392;57.390;-2.468;2023-06-22T12:24:52;1.58;;;1.48;;
22449;SDS011;11392;57.390;-2.468;2023-06-22T12:27:19;1.85;;;1.65;;
22449;SDS011;11392;57.390;-2.468;2023-06-22T12:29:46;3.75;;;2.03;;
22449;SDS011;11392;57.390;-2.468;2023-06-22T12:32:14;1.73;;;1.60;;
22449;SDS011;11392;57.390;-2.468;2023-06-22T12:34:41;2.47;;;1.70;;
22449;SDS011;11392;57.390;-2.468;2023-06-22T12:37:09;2.17;;;1.63;;
22449;SDS011;11392;57.390;-2.468;2023-06-22T12:39:36;2.55;;;1.52;;
22449;SDS011;11392;57.390;-2.468;2023-06-22T12:42:03;1.98;;;1.73;;
22449;SDS011;11392;57.390;-2.468;2023-06-22T12:44:30;2.17;;;1.60;;
22449;SDS011;11392;57.390;-2.468;2023-06-22T12:46:57;2.13;;;1.40;;
22449;SDS011;11392;57.390;-2.468;2023-06-22T12:49:24;1.95;;;1.73;;
22449;SDS011;11392;57.390;-2.468;2023-06-22T12:51:51;2.67;;;1.63;;
22449;SDS011;11392;57.390;-2.468;2023-06-22T12:54:18;2.45;;;1.70;;
22449;SDS011;11392;57.390;-2.468;2023-06-22T12:56:45;1.80;;;1.65;;
22449;SDS011;11392;57.390;-2.468;2023-06-22T12:59:13;1.70;;;1.60;;
22449;SDS011;11392;57.390;-2.468;2023-06-22T13:01:40;2.25;;;2.05;;
22449;SDS011;11392;57.390;-2.468;2023-06-22T13:04:07;1.80;;;1.70;;
22449;SDS011;11392;57.390;-2.468;2023-06-22T13:06:34;2.60;;;1.75;;
22449;SDS011;11392;57.390;-2.468;2023-06-22T13:09:01;1.95;;;1.70;;
22449;SDS011;11392;57.390;-2.468;2023-06-22T13:11:31;2.85;;;1.80;;
22449;SDS011;11392;57.390;-2.468;2023-06-22T13:13:58;4.63;;;1.65;;
22449;SDS011;11392;57.390;-2.468;2023-06-22T13:16:25;2.60;;;1.75;;
22449;SDS011;11392;57.390;-2.468;2023-06-22T13:18:52;2.00;;;1.80;;
22449;SDS011;11392;57.390;-2.468;2023-06-22T13:21:19;1.60;;;1.50;;
22449;SDS011;11392;57.390;-2.468;2023-06-22T13:23:46;1.77;;;1.67;;
22449;SDS011;11392;57.390;-2.468;2023-06-22T13:26:13;2.50;;;1.70;;
22449;SDS011;11392;57.390;-2.468;2023-06-22T13:28:40;1.60;;;1.50;;
22449;SDS011;11392;57.390;-2.468;2023-06-22T13:31:07;3.10;;;1.80;;
22449;SDS011;11392;57.390;-2.468;2023-06-22T13:33:37;2.15;;;1.60;;
22449;SDS011;11392;57.390;-2.468;2023-06-22T13:36:04;2.47;;;1.77;;
22449;SDS011;11392;57.390;-2.468;2023-06-22T13:38:32;1.60;;;1.30;;
22449;SDS011;11392;57.390;-2.468;2023-06-22T13:41:05;2.00;;;1.80;;
22449;SDS011;11392;57.390;-2.468;2023-06-22T13:43:32;5.03;;;2.10;;
22449;SDS011;11392;57.390;-2.468;2023-06-22T13:45:59;1.92;;;1.77;;
22449;SDS011;11392;57.390;-2.468;2023-06-22T13:48:26;3.13;;;1.70;;
22449;SDS011;11392;57.390;-2.468;2023-06-22T13:50:54;4.18;;;2.00;;
22449;SDS011;11392;57.390;-2.468;2023-06-22T13:53:22;3.25;;;1.98;;
22449;SDS011;11392;57.390;-2.468;2023-06-22T13:55:50;2.22;;;1.88;;
22449;SDS011;11392;57.390;-2.468;2023-06-22T13:58:18;3.60;;;2.10;;
22449;SDS011;11392;57.390;-2.468;2023-06-22T14:00:46;3.10;;;2.20;;
22449;SDS011;11392;57.390;-2.468;2023-06-22T14:03:14;7.05;;;2.13;;
22449;SDS011;11392;57.390;-2.468;2023-06-22T14:05:43;4.68;;;2.30;;
22449;SDS011;11392;57.390;-2.468;2023-06-22T14:08:10;3.92;;;2.50;;
22449;SDS011;11392;57.390;-2.468;2023-06-22T14:10:57;2.60;;;2.30;;
22449;SDS011;11392;57.390;-2.468;2023-06-22T14:13:24;6.05;;;2.47;;
22449;SDS011;11392;57.390;-2.468;2023-06-22T14:15:51;4.63;;;2.65;;
22449;SDS011;11392;57.390;-2.468;2023-06-22T14:18:20;3.55;;;2.50;;
22449;SDS011;11392;57.390;-2.468;2023-06-22T14:20:48;2.75;;;2.45;;
22449;SDS011;11392;57.390;-2.468;2023-06-22T14:23:15;3.92;;;2.33;;
22449;SDS011;11392;57.390;-2.468;2023-06-22T14:25:42;3.45;;;2.30;;
22449;SDS011;11392;57.390;-2.468;2023-06-22T14:28:09;2.40;;;2.20;;
22449;SDS011;11392;57.390;-2.468;2023-06-22T14:30:36;2.63;;;2.40;;
22449;SDS011;11392;57.390;-2.468;2023-06-22T14:33:03;3.08;;;2.40;;
22449;SDS011;11392;57.390;-2.468;2023-06-22T14:35:31;3.17;;;2.40;;
22449;SDS011;11392;57.390;-2.468;2023-06-22T14:37:57;2.78;;;2.35;;
22449;SDS011;11392;57.390;-2.468;2023-06-22T14:40:24;2.58;;;2.38;;
22449;SDS011;11392;57.390;-2.468;2023-06-22T14:42:52;3.75;;;2.47;;
22449;SDS011;11392;57.390;-2.468;2023-06-22T14:45:19;2.65;;;2.45;;
22449;SDS011;11392;57.390;-2.468;2023-06-22T14:47:46;3.10;;;2.58;;